createdAt,value
2023-03-29T00:00:09.538Z,73.15
2023-03-29T00:02:38.484Z,72.99
2023-03-29T00:05:06.802Z,73.21
2023-03-29T00:07:34.603Z,73.32
2023-03-29T00:10:02.407Z,72.72
2023-03-29T00:12:29.895Z,72.11
2023-03-29T00:14:57.347Z,73.17
2023-03-29T00:17:24.853Z,74.17
2023-03-29T00:19:53.644Z,72.93
2023-03-29T00:22:21.258Z,72.99
2023-03-29T00:24:49.141Z,72.62
2023-03-29T00:27:16.614Z,72.90
2023-03-29T00:29:44.124Z,73.62
2023-03-29T00:32:11.641Z,73.17
2023-03-29T00:34:39.111Z,73.05
2023-03-29T00:37:09.526Z,72.75
2023-03-29T00:39:37.658Z,73.29
2023-03-29T00:42:05.405Z,73.00
2023-03-29T00:45:02.442Z,73.41
2023-03-29T00:47:33.755Z,72.61
2023-03-29T00:50:04.637Z,73.29
2023-03-29T00:52:34.910Z,72.66
2023-03-29T00:55:05.720Z,72.75
2023-03-29T00:57:34.266Z,73.08
2023-03-29T01:00:04.753Z,72.81
2023-03-29T01:02:34.624Z,72.76
2023-03-29T01:05:06.305Z,73.26
2023-03-29T01:07:38.976Z,72.83
2023-03-29T01:10:10.805Z,73.19
2023-03-29T01:12:41.254Z,73.15
2023-03-29T01:15:11.990Z,73.50
2023-03-29T01:17:40.529Z,74.37
2023-03-29T01:20:14.238Z,74.20
2023-03-29T01:22:55.235Z,74.64
2023-03-29T01:25:27.424Z,74.16
2023-03-29T01:27:59.211Z,76.27
2023-03-29T01:30:30.614Z,76.38
2023-03-29T01:33:00.372Z,75.82
2023-03-29T01:35:32.504Z,76.08
2023-03-29T01:38:02.579Z,76.62
2023-03-29T01:40:31.056Z,77.76
2023-03-29T01:43:07.391Z,76.75
2023-03-29T01:45:38.001Z,77.21
2023-03-29T01:48:10.238Z,76.87
2023-03-29T01:50:42.746Z,76.22
2023-03-29T01:53:13.689Z,76.10
2023-03-29T01:55:44.802Z,75.66
2023-03-29T01:58:14.486Z,75.88
2023-03-29T02:00:43.701Z,75.47
2023-03-29T02:03:11.741Z,75.67
2023-03-29T02:05:41.055Z,76.44
2023-03-29T02:08:10.780Z,75.93
2023-03-29T02:10:38.771Z,76.26
2023-03-29T02:13:06.513Z,75.26
2023-03-29T02:15:35.387Z,74.97
2023-03-29T02:18:04.067Z,74.81
2023-03-29T02:20:33.448Z,74.56
2023-03-29T02:23:04.730Z,75.29
2023-03-29T02:25:32.552Z,75.07
2023-03-29T02:28:00.800Z,75.49
2023-03-29T02:30:31.591Z,75.27
2023-03-29T02:33:05.977Z,75.37
2023-03-29T02:35:36.385Z,75.18
2023-03-29T02:38:05.773Z,74.88
2023-03-29T02:40:34.689Z,74.40
2023-03-29T02:43:03.080Z,75.39
2023-03-29T02:45:31.282Z,75.46
2023-03-29T02:48:03.649Z,75.27
2023-03-29T02:50:35.991Z,75.27
2023-03-29T02:53:06.903Z,74.65
2023-03-29T02:55:35.436Z,74.92
2023-03-29T02:58:07.785Z,74.37
2023-03-29T03:00:36.911Z,74.84
2023-03-29T03:03:07.653Z,74.38
2023-03-29T03:05:35.364Z,74.84
2023-03-29T03:08:04.439Z,75.01
2023-03-29T03:10:33.608Z,75.34
2023-03-29T03:13:01.426Z,75.15
2023-03-29T03:15:28.913Z,75.13
2023-03-29T03:17:56.384Z,75.35
2023-03-29T03:20:26.457Z,75.64
2023-03-29T03:22:53.952Z,76.44
2023-03-29T03:25:21.871Z,76.06
2023-03-29T03:27:50.165Z,76.91
2023-03-29T03:30:18.395Z,76.42
2023-03-29T03:32:45.910Z,76.58
2023-03-29T03:35:14.163Z,77.08
2023-03-29T03:37:42.980Z,76.16
2023-03-29T03:40:13.463Z,76.46
2023-03-29T03:42:41.184Z,76.48
2023-03-29T03:45:10.562Z,76.81
2023-03-29T03:47:38.668Z,76.70
2023-03-29T03:50:08.514Z,77.59
2023-03-29T03:52:36.206Z,77.53
2023-03-29T03:55:05.534Z,77.98
2023-03-29T03:57:33.101Z,78.46
2023-03-29T04:00:00.588Z,77.29
2023-03-29T04:02:28.115Z,77.91
2023-03-29T04:04:55.689Z,77.11
2023-03-29T04:07:25.399Z,78.55
2023-03-29T04:09:52.937Z,80.08
2023-03-29T04:12:21.720Z,79.71
2023-03-29T04:14:49.182Z,80.26
2023-03-29T04:17:16.613Z,79.73
2023-03-29T04:19:44.064Z,78.69
2023-03-29T04:22:11.506Z,77.83
2023-03-29T04:24:38.939Z,78.13
2023-03-29T04:27:06.418Z,79.59
2023-03-29T04:29:35.182Z,78.27
2023-03-29T04:32:02.651Z,78.21
2023-03-29T04:34:30.100Z,79.19
2023-03-29T04:36:58.694Z,80.66
2023-03-29T04:39:31.938Z,80.55
2023-03-29T04:42:00.048Z,80.08
2023-03-29T04:44:27.971Z,79.77
2023-03-29T04:46:56.777Z,79.81
2023-03-29T04:49:26.071Z,79.38
2023-03-29T04:51:54.210Z,80.63
2023-03-29T04:54:21.859Z,79.82
2023-03-29T04:56:49.406Z,80.09
2023-03-29T04:59:16.883Z,80.72
2023-03-29T05:01:45.130Z,80.41
2023-03-29T05:04:14.587Z,79.07
2023-03-29T05:06:42.066Z,78.95
2023-03-29T05:09:10.454Z,79.12
2023-03-29T05:11:38.308Z,79.75
2023-03-29T05:14:07.251Z,80.28
2023-03-29T05:16:35.599Z,79.76
2023-03-29T05:19:03.252Z,79.24
2023-03-29T05:21:33.476Z,78.36
2023-03-29T05:24:00.924Z,78.46
2023-03-29T05:26:29.503Z,80.00
2023-03-29T05:28:57.193Z,81.16
2023-03-29T05:31:24.857Z,80.94
2023-03-29T05:33:52.600Z,81.53
2023-03-29T05:36:20.259Z,80.10
2023-03-29T05:38:49.803Z,80.53
2023-03-29T05:41:18.524Z,80.61
2023-03-29T05:43:46.350Z,79.21
2023-03-29T05:46:13.872Z,79.84
2023-03-29T05:48:41.512Z,80.51
2023-03-29T05:51:09.376Z,80.39
2023-03-29T05:53:37.719Z,80.05
2023-03-29T05:56:08.688Z,79.42
2023-03-29T05:58:36.260Z,78.83
2023-03-29T06:01:05.220Z,79.00
2023-03-29T06:03:47.512Z,79.74
2023-03-29T06:06:16.453Z,78.45
2023-03-29T06:08:44.665Z,78.91
2023-03-29T06:11:14.257Z,78.87
2023-03-29T06:13:42.062Z,78.73
2023-03-29T06:16:10.193Z,77.94
2023-03-29T06:18:38.022Z,79.16
2023-03-29T06:21:06.673Z,78.53
2023-03-29T06:23:34.136Z,77.53
2023-03-29T06:26:01.718Z,77.55
2023-03-29T06:28:30.734Z,77.63
2023-03-29T06:31:02.614Z,77.75
2023-03-29T06:33:32.194Z,77.17
2023-03-29T06:35:59.832Z,77.45
2023-03-29T06:38:28.405Z,76.12
2023-03-29T06:41:01.512Z,76.63
2023-03-29T06:43:33.272Z,77.38
2023-03-29T06:46:00.943Z,76.33
2023-03-29T06:49:13.350Z,76.51
2023-03-29T06:51:41.130Z,76.17
2023-03-29T06:54:08.553Z,76.90
2023-03-29T06:56:35.981Z,75.57
2023-03-29T06:59:04.792Z,76.08
2023-03-29T07:01:32.952Z,76.75
2023-03-29T07:04:04.575Z,77.31
2023-03-29T07:06:32.114Z,77.37
2023-03-29T07:09:01.305Z,76.48
2023-03-29T07:11:29.022Z,76.06
2023-03-29T07:13:56.454Z,75.18
2023-03-29T07:16:25.285Z,75.34
2023-03-29T07:18:52.763Z,76.35
2023-03-29T07:21:20.585Z,75.05
2023-03-29T07:23:48.051Z,74.64
2023-03-29T07:26:28.589Z,73.54
2023-03-29T07:28:56.567Z,74.35
2023-03-29T07:31:25.442Z,74.48
2023-03-29T07:33:53.188Z,75.34
2023-03-29T07:36:21.109Z,76.00
2023-03-29T07:38:48.942Z,74.82
2023-03-29T07:41:16.730Z,74.11
2023-03-29T07:43:44.248Z,74.03
2023-03-29T07:46:11.796Z,74.26
2023-03-29T07:48:40.707Z,74.39
2023-03-29T07:51:08.718Z,74.41
2023-03-29T07:53:36.210Z,73.58
2023-03-29T07:56:04.470Z,72.74
2023-03-29T07:58:32.114Z,73.58
2023-03-29T08:01:00.046Z,72.77
2023-03-29T08:03:28.771Z,72.36
2023-03-29T08:05:57.582Z,73.08
2023-03-29T08:08:25.020Z,72.52
2023-03-29T08:10:52.725Z,72.84
2023-03-29T08:13:20.326Z,72.40
2023-03-29T08:15:48.640Z,71.46
2023-03-29T08:18:16.084Z,71.53
2023-03-29T08:20:43.551Z,71.42
2023-03-29T08:23:12.345Z,70.62
2023-03-29T08:25:39.746Z,70.05
2023-03-29T08:28:07.233Z,69.40
2023-03-29T08:30:34.712Z,69.24
2023-03-29T08:33:02.230Z,68.80
2023-03-29T08:35:29.712Z,69.12
2023-03-29T08:37:57.416Z,68.38
2023-03-29T08:40:29.893Z,69.08
2023-03-29T08:43:15.698Z,67.54
2023-03-29T08:45:53.990Z,66.55
2023-03-29T08:48:25.807Z,66.69
2023-03-29T08:50:56.141Z,67.55
2023-03-29T08:53:25.729Z,67.04
2023-03-29T08:55:57.175Z,64.45
2023-03-29T08:58:28.956Z,65.86
2023-03-29T09:00:58.531Z,64.68
2023-03-29T09:03:29.199Z,64.69
2023-03-29T09:05:59.002Z,62.36
2023-03-29T09:08:26.674Z,63.43
2023-03-29T09:11:10.858Z,63.52
2023-03-29T09:13:43.779Z,62.76
2023-03-29T09:16:14.565Z,62.58
2023-03-29T09:18:51.645Z,62.39
2023-03-29T09:21:23.389Z,63.09
2023-03-29T09:24:04.744Z,61.79
2023-03-29T09:26:38.363Z,63.08
2023-03-29T09:29:15.303Z,63.03
2023-03-29T09:31:44.593Z,61.65
2023-03-29T09:34:15.874Z,64.09
2023-03-29T09:36:49.732Z,63.85
2023-03-29T09:39:17.500Z,64.06
2023-03-29T09:41:50.038Z,64.26
2023-03-29T09:44:30.111Z,63.91
2023-03-29T09:47:02.824Z,64.84
2023-03-29T09:49:33.274Z,63.13
2023-03-29T09:52:02.778Z,63.28
2023-03-29T09:54:30.323Z,65.18
2023-03-29T09:56:59.441Z,62.69
2023-03-29T09:59:27.027Z,62.48
2023-03-29T10:01:54.519Z,64.11
2023-03-29T10:04:22.508Z,63.28
2023-03-29T10:06:51.044Z,64.73
2023-03-29T10:09:21.443Z,64.08
2023-03-29T10:11:51.024Z,63.55
2023-03-29T10:14:22.314Z,63.50
2023-03-29T10:16:56.406Z,62.78
2023-03-29T10:19:25.237Z,62.74
2023-03-29T10:21:53.895Z,63.17
2023-03-29T10:24:22.138Z,62.51
2023-03-29T10:26:53.317Z,62.55
2023-03-29T10:29:22.415Z,62.16
2023-03-29T10:31:50.148Z,61.84
2023-03-29T10:34:18.855Z,63.21
2023-03-29T10:36:53.521Z,62.81
2023-03-29T10:39:21.095Z,62.58
2023-03-29T10:41:52.485Z,62.46
2023-03-29T10:44:31.543Z,63.12
2023-03-29T10:47:09.072Z,63.11
2023-03-29T10:49:41.985Z,60.20
2023-03-29T10:52:10.062Z,63.15
2023-03-29T10:54:37.671Z,62.01
2023-03-29T10:57:08.541Z,61.99
2023-03-29T10:59:41.626Z,61.68
2023-03-29T11:02:44.017Z,62.00
2023-03-29T11:05:24.487Z,63.09
2023-03-29T11:08:16.510Z,63.08
2023-03-29T11:10:50.401Z,62.92
2023-03-29T11:13:23.363Z,62.44
2023-03-29T11:16:01.609Z,61.22
2023-03-29T11:18:44.399Z,61.34
2023-03-29T11:21:20.966Z,61.89
2023-03-29T11:23:51.458Z,59.68
2023-03-29T11:26:22.711Z,59.25
2023-03-29T11:28:53.886Z,59.21
2023-03-29T11:31:30.383Z,61.02
2023-03-29T11:34:09.745Z,61.93
2023-03-29T11:36:50.421Z,60.91
2023-03-29T11:39:26.623Z,59.59
2023-03-29T11:41:55.576Z,59.05
2023-03-29T11:44:25.722Z,59.21
2023-03-29T11:46:58.470Z,58.80
2023-03-29T11:49:28.150Z,60.57
2023-03-29T11:51:59.430Z,56.80
2023-03-29T11:54:29.830Z,58.60
2023-03-29T11:57:01.623Z,59.45
2023-03-29T11:59:31.548Z,60.09
2023-03-29T12:02:06.490Z,59.91
2023-03-29T12:04:37.062Z,59.21
2023-03-29T12:07:10.746Z,59.91
2023-03-29T12:09:40.465Z,58.40
2023-03-29T12:12:11.505Z,59.32
2023-03-29T12:14:48.952Z,60.70
2023-03-29T12:17:20.283Z,59.80
2023-03-29T12:19:51.966Z,59.86
2023-03-29T12:22:19.412Z,59.98
2023-03-29T12:24:48.517Z,61.09
2023-03-29T12:27:23.915Z,60.54
2023-03-29T12:30:05.694Z,60.71
2023-03-29T12:32:45.914Z,60.01
2023-03-29T12:35:24.918Z,59.51
2023-03-29T12:37:59.870Z,61.21
2023-03-29T12:40:28.483Z,62.09
2023-03-29T12:43:00.788Z,61.86
2023-03-29T12:45:34.928Z,61.31
2023-03-29T12:48:04.002Z,62.52
2023-03-29T12:50:35.400Z,61.17
2023-03-29T12:53:05.244Z,61.20
2023-03-29T12:55:36.072Z,60.47
2023-03-29T12:58:06.485Z,60.38
2023-03-29T13:00:43.513Z,60.36
2023-03-29T13:03:28.393Z,61.14
2023-03-29T13:06:03.455Z,60.58
2023-03-29T13:08:36.539Z,60.42
2023-03-29T13:11:05.726Z,61.26
2023-03-29T13:13:36.200Z,60.55
2023-03-29T13:16:12.501Z,60.28
2023-03-29T13:18:51.922Z,60.70
2023-03-29T13:21:22.807Z,60.33
2023-03-29T13:23:58.725Z,61.36
2023-03-29T13:26:36.486Z,63.04
2023-03-29T13:29:21.303Z,62.56
2023-03-29T13:31:54.034Z,61.96
2023-03-29T13:34:33.720Z,62.56
2023-03-29T13:37:10.547Z,62.31
2023-03-29T13:39:39.535Z,61.96
2023-03-29T13:42:17.752Z,60.35
2023-03-29T13:44:48.971Z,61.25
2023-03-29T13:47:30.126Z,61.02
2023-03-29T13:50:00.668Z,59.75
2023-03-29T13:52:29.836Z,58.19
2023-03-29T13:55:01.634Z,58.01
2023-03-29T13:57:33.762Z,57.58
2023-03-29T14:00:07.063Z,57.75
2023-03-29T14:02:39.470Z,57.99
2023-03-29T14:05:10.815Z,59.07
2023-03-29T14:07:39.114Z,58.21
2023-03-29T14:10:07.774Z,57.89
2023-03-29T14:12:41.114Z,58.28
2023-03-29T14:15:25.173Z,58.10
2023-03-29T14:18:00.708Z,58.24
2023-03-29T14:20:31.524Z,58.12
2023-03-29T14:22:59.053Z,59.01
2023-03-29T14:25:27.177Z,56.71
2023-03-29T14:27:54.633Z,57.51
2023-03-29T14:30:27.095Z,57.40
2023-03-29T14:32:56.506Z,57.83
2023-03-29T14:35:32.172Z,56.35
2023-03-29T14:38:00.090Z,56.38
2023-03-29T14:40:27.971Z,56.96
2023-03-29T14:42:56.239Z,56.15
2023-03-29T14:45:24.329Z,55.61
2023-03-29T14:50:23.383Z,55.89
2023-03-29T14:52:52.850Z,56.15
2023-03-29T14:55:23.745Z,56.21
2023-03-29T14:57:52.653Z,56.74
2023-03-29T15:00:26.300Z,57.01
2023-03-29T15:02:59.267Z,56.30
2023-03-29T15:05:36.744Z,56.02
2023-03-29T15:08:08.738Z,56.06
2023-03-29T15:10:37.884Z,55.82
2023-03-29T15:13:06.602Z,55.83
2023-03-29T15:15:36.196Z,56.29
2023-03-29T15:18:04.317Z,56.89
2023-03-29T15:20:34.691Z,55.98
2023-03-29T15:23:03.978Z,56.88
2023-03-29T15:25:37.474Z,57.44
2023-03-29T15:28:05.511Z,57.61
2023-03-29T15:30:35.336Z,56.64
2023-03-29T15:33:17.015Z,55.85
2023-03-29T15:35:46.947Z,55.98
2023-03-29T15:38:14.557Z,55.55
2023-03-29T15:40:43.503Z,55.72
2023-03-29T15:43:11.654Z,55.69
2023-03-29T15:45:39.455Z,57.10
2023-03-29T15:48:15.451Z,56.93
2023-03-29T15:50:44.997Z,56.97
2023-03-29T15:53:15.600Z,57.60
2023-03-29T15:55:46.137Z,57.50
2023-03-29T15:58:15.222Z,57.94
2023-03-29T16:00:44.713Z,57.01
2023-03-29T16:03:15.683Z,57.44
2023-03-29T16:05:43.853Z,58.09
2023-03-29T16:08:11.897Z,57.30
2023-03-29T16:10:39.802Z,57.91
2023-03-29T16:13:08.791Z,57.90
2023-03-29T16:15:36.729Z,58.18
2023-03-29T16:18:04.312Z,58.28
2023-03-29T16:20:32.146Z,58.96
2023-03-29T16:22:59.672Z,59.21
2023-03-29T16:25:28.226Z,58.32
2023-03-29T16:27:55.812Z,58.08
2023-03-29T16:30:25.021Z,58.27
2023-03-29T16:32:52.560Z,59.08
2023-03-29T16:35:26.005Z,59.04
2023-03-29T16:37:53.788Z,59.97
2023-03-29T16:40:21.944Z,60.87
2023-03-29T16:42:49.695Z,60.36
2023-03-29T16:45:18.657Z,60.97
2023-03-29T16:47:47.880Z,60.06
2023-03-29T16:50:17.948Z,61.06
2023-03-29T16:52:46.353Z,61.69
2023-03-29T16:55:15.128Z,61.33
2023-03-29T16:57:43.011Z,62.11
2023-03-29T17:00:14.072Z,61.35
2023-03-29T17:02:41.738Z,61.90
2023-03-29T17:05:11.766Z,62.49
2023-03-29T17:07:40.128Z,62.62
2023-03-29T17:10:08.537Z,61.75
2023-03-29T17:12:36.855Z,61.55
2023-03-29T17:15:05.038Z,61.25
2023-03-29T17:17:32.584Z,62.56
2023-03-29T17:20:00.563Z,63.20
2023-03-29T17:22:29.535Z,63.56
2023-03-29T17:24:57.113Z,63.84
2023-03-29T17:27:24.542Z,63.70
2023-03-29T17:29:52.067Z,64.39
2023-03-29T17:32:19.632Z,64.57
2023-03-29T17:34:47.918Z,64.71
2023-03-29T17:37:15.401Z,64.71
2023-03-29T17:39:46.030Z,66.07
2023-03-29T17:42:13.745Z,66.84
2023-03-29T17:44:41.208Z,66.62
2023-03-29T17:47:08.922Z,66.53
2023-03-29T17:49:36.409Z,66.81
2023-03-29T17:52:04.151Z,66.85
2023-03-29T17:54:31.882Z,67.76
2023-03-29T17:57:00.734Z,68.32
2023-03-29T17:59:28.218Z,68.09
2023-03-29T18:01:55.704Z,68.61
2023-03-29T18:04:23.253Z,69.45
2023-03-29T18:06:50.701Z,69.52
2023-03-29T18:09:18.265Z,69.04
2023-03-29T18:11:45.987Z,69.47
2023-03-29T18:14:14.812Z,70.16
2023-03-29T18:16:42.327Z,70.97
2023-03-29T18:19:10.708Z,70.51
2023-03-29T18:21:38.254Z,70.58
2023-03-29T18:24:05.926Z,70.71
2023-03-29T18:26:33.642Z,71.39
2023-03-29T18:29:01.757Z,70.58
2023-03-29T18:31:30.671Z,71.72
2023-03-29T18:33:58.348Z,73.35
2023-03-29T18:36:26.330Z,71.41
2023-03-29T18:38:55.706Z,72.06
2023-03-29T18:41:24.352Z,72.46
2023-03-29T18:43:51.986Z,73.06
2023-03-29T18:46:19.449Z,73.09
2023-03-29T18:48:48.290Z,73.35
2023-03-29T18:51:15.982Z,72.58
2023-03-29T18:53:44.286Z,72.60
2023-03-29T18:56:11.875Z,72.54
2023-03-29T18:58:39.316Z,72.17
2023-03-29T19:01:06.996Z,71.61
2023-03-29T19:03:35.371Z,72.52
2023-03-29T19:06:04.915Z,72.08
2023-03-29T19:08:34.266Z,71.92
2023-03-29T19:11:02.595Z,72.85
2023-03-29T19:13:30.040Z,73.24
2023-03-29T19:15:57.523Z,73.27
2023-03-29T19:18:25.018Z,72.16
2023-03-29T19:20:54.066Z,72.72
2023-03-29T19:23:25.052Z,73.29
2023-03-29T19:25:53.366Z,73.22
2023-03-29T19:28:21.234Z,72.28
2023-03-29T19:30:48.837Z,71.80
2023-03-29T19:33:16.960Z,71.17
2023-03-29T19:35:44.501Z,71.19
2023-03-29T19:38:13.518Z,71.38
2023-03-29T19:40:45.630Z,69.48
2023-03-29T19:43:16.328Z,70.21
2023-03-29T19:45:44.385Z,70.23
2023-03-29T19:48:21.104Z,69.75
2023-03-29T19:50:49.567Z,69.81
2023-03-29T19:53:19.048Z,69.96
2023-03-29T19:55:49.307Z,69.10
2023-03-29T19:58:17.070Z,68.60
2023-03-29T20:00:44.683Z,69.09
2023-03-29T20:03:13.827Z,69.30
2023-03-29T20:05:41.898Z,69.09
2023-03-29T20:08:09.954Z,69.21
2023-03-29T20:10:37.460Z,69.37
2023-03-29T20:13:06.755Z,68.93
2023-03-29T20:15:34.710Z,69.12
2023-03-29T20:18:02.260Z,68.98
2023-03-29T20:20:29.824Z,69.56
2023-03-29T20:23:04.631Z,69.80
2023-03-29T20:25:32.913Z,69.79
2023-03-29T20:28:00.582Z,69.78
2023-03-29T20:30:29.659Z,70.55
2023-03-29T20:32:57.217Z,71.02
2023-03-29T20:35:24.886Z,71.08
2023-03-29T20:37:52.754Z,70.95
2023-03-29T20:40:21.033Z,71.07
2023-03-29T20:42:48.898Z,71.06
2023-03-29T20:45:19.225Z,71.27
2023-03-29T20:47:57.671Z,71.62
2023-03-29T20:50:27.118Z,71.73
2023-03-29T20:52:55.181Z,71.61
2023-03-29T20:55:23.328Z,71.88
2023-03-29T20:57:51.414Z,71.31
2023-03-29T21:00:19.918Z,71.22
2023-03-29T21:02:48.865Z,72.35
2023-03-29T21:05:17.079Z,72.42
2023-03-29T21:07:47.877Z,72.83
2023-03-29T21:10:16.328Z,73.38
2023-03-29T21:12:43.947Z,73.57
2023-03-29T21:15:13.286Z,73.17
2023-03-29T21:17:41.369Z,73.02
2023-03-29T21:20:12.062Z,74.06
2023-03-29T21:22:40.152Z,74.37
2023-03-29T21:25:09.655Z,74.22
2023-03-29T21:27:37.700Z,74.95
2023-03-29T21:30:06.415Z,75.02
2023-03-29T21:32:33.925Z,75.00
2023-03-29T21:35:01.414Z,75.15
2023-03-29T21:37:30.382Z,75.18
2023-03-29T21:39:57.876Z,75.70
2023-03-29T21:42:25.445Z,75.66
2023-03-29T21:44:52.926Z,75.81
2023-03-29T21:47:21.213Z,76.11
2023-03-29T21:49:48.824Z,76.69
2023-03-29T21:52:16.317Z,76.29
2023-03-29T21:54:45.103Z,76.28
2023-03-29T21:57:12.825Z,76.64
2023-03-29T21:59:40.664Z,76.91
2023-03-29T22:02:08.202Z,76.73
2023-03-29T22:04:37.373Z,76.17
2023-03-29T22:07:05.608Z,77.01
2023-03-29T22:09:33.318Z,77.10
2023-03-29T22:12:02.182Z,76.99
2023-03-29T22:14:30.143Z,77.14
2023-03-29T22:16:58.321Z,76.99
2023-03-29T22:19:25.943Z,77.83
2023-03-29T22:22:00.314Z,78.07
2023-03-29T22:24:28.777Z,78.32
2023-03-29T22:26:56.334Z,78.18
2023-03-29T22:29:25.267Z,78.28
2023-03-29T22:31:52.860Z,78.44
2023-03-29T22:34:20.593Z,78.13
2023-03-29T22:36:48.054Z,78.71
2023-03-29T22:39:15.847Z,78.79
2023-03-29T22:41:43.348Z,78.64
2023-03-29T22:44:10.888Z,79.39
2023-03-29T22:46:39.739Z,79.29
2023-03-29T22:49:07.191Z,78.92
2023-03-29T22:51:34.632Z,79.54
2023-03-29T22:54:02.102Z,79.01
2023-03-29T22:56:29.574Z,78.49
2023-03-29T22:58:57.032Z,77.81
2023-03-29T23:01:24.561Z,78.01
2023-03-29T23:03:53.529Z,76.91
2023-03-29T23:06:21.046Z,78.51
2023-03-29T23:08:49.344Z,78.21
2023-03-29T23:11:16.854Z,78.16
2023-03-29T23:13:48.513Z,78.35
2023-03-29T23:16:16.346Z,79.06
2023-03-29T23:18:43.852Z,79.66
2023-03-29T23:21:12.803Z,79.80
2023-03-29T23:23:40.609Z,79.49
2023-03-29T23:26:10.268Z,79.08
2023-03-29T23:28:37.813Z,79.24
2023-03-29T23:31:09.418Z,79.43
2023-03-29T23:33:40.226Z,79.38
2023-03-29T23:36:09.794Z,79.53
2023-03-29T23:38:39.627Z,79.50
2023-03-29T23:41:10.238Z,80.53
2023-03-29T23:43:40.309Z,79.79
2023-03-29T23:46:09.721Z,80.10
2023-03-29T23:48:37.956Z,79.87
2023-03-29T23:51:07.809Z,79.26
2023-03-29T23:53:37.236Z,79.72
2023-03-29T23:56:07.554Z,78.70
2023-03-29T23:58:36.755Z,79.00
